sensor_id;sensor_type;location;lat;lon;timestamp;temperature;humidity
23873;DHT22;42884;50.718;4.630;2022-07-12T00:01:03;17.20;99.90
23873;DHT22;42884;50.718;4.630;2022-07-12T00:03:28;17.10;99.90
23873;DHT22;42884;50.718;4.630;2022-07-12T00:05:54;17.10;99.90
23873;DHT22;42884;50.718;4.630;2022-07-12T00:08:20;17.00;99.90
23873;DHT22;42884;50.718;4.630;2022-07-12T00:10:45;17.00;99.90
23873;DHT22;42884;50.718;4.630;2022-07-12T00:13:11;17.00;99.90
23873;DHT22;42884;50.718;4.630;2022-07-12T00:15:36;16.90;99.90
23873;DHT22;42884;50.718;4.630;2022-07-12T00:18:02;16.90;99.90
23873;DHT22;42884;50.718;4.630;2022-07-12T00:20:28;16.80;99.90
23873;DHT22;42884;50.718;4.630;2022-07-12T00:22:54;16.80;99.90
23873;DHT22;42884;50.718;4.630;2022-07-12T00:25:20;16.80;99.90
23873;DHT22;42884;50.718;4.630;2022-07-12T00:27:45;16.70;99.90
23873;DHT22;42884;50.718;4.630;2022-07-12T00:30:11;16.70;99.90
23873;DHT22;42884;50.718;4.630;2022-07-12T00:32:37;16.60;99.90
23873;DHT22;42884;50.718;4.630;2022-07-12T00:35:02;16.50;99.90
23873;DHT22;42884;50.718;4.630;2022-07-12T00:37:28;16.50;99.90
23873;DHT22;42884;50.718;4.630;2022-07-12T00:39:54;16.40;99.90
23873;DHT22;42884;50.718;4.630;2022-07-12T00:42:20;16.40;99.90
23873;DHT22;42884;50.718;4.630;2022-07-12T00:44:45;16.40;99.90
23873;DHT22;42884;50.718;4.630;2022-07-12T00:47:25;16.30;99.90
23873;DHT22;42884;50.718;4.630;2022-07-12T00:49:53;16.30;99.90
23873;DHT22;42884;50.718;4.630;2022-07-12T00:52:19;16.30;99.90
23873;DHT22;42884;50.718;4.630;2022-07-12T00:54:44;16.20;99.90
23873;DHT22;42884;50.718;4.630;2022-07-12T00:57:10;16.20;99.90
23873;DHT22;42884;50.718;4.630;2022-07-12T00:59:35;16.20;99.90
23873;DHT22;42884;50.718;4.630;2022-07-12T01:02:01;16.10;99.90
23873;DHT22;42884;50.718;4.630;2022-07-12T01:04:26;16.10;99.90
23873;DHT22;42884;50.718;4.630;2022-07-12T01:06:53;16.00;99.90
23873;DHT22;42884;50.718;4.630;2022-07-12T01:09:18;16.00;99.90
23873;DHT22;42884;50.718;4.630;2022-07-12T01:11:44;16.00;99.90
23873;DHT22;42884;50.718;4.630;2022-07-12T01:14:10;15.90;99.90
23873;DHT22;42884;50.718;4.630;2022-07-12T01:16:36;15.90;99.90
23873;DHT22;42884;50.718;4.630;2022-07-12T01:19:03;15.90;99.90
23873;DHT22;42884;50.718;4.630;2022-07-12T01:21:29;15.80;99.90
23873;DHT22;42884;50.718;4.630;2022-07-12T01:23:57;15.80;99.90
23873;DHT22;42884;50.718;4.630;2022-07-12T01:26:22;15.70;99.90
23873;DHT22;42884;50.718;4.630;2022-07-12T01:28:48;15.70;99.90
23873;DHT22;42884;50.718;4.630;2022-07-12T01:31:13;15.70;99.90
23873;DHT22;42884;50.718;4.630;2022-07-12T01:33:39;15.70;99.90
23873;DHT22;42884;50.718;4.630;2022-07-12T01:36:05;15.70;99.90
23873;DHT22;42884;50.718;4.630;2022-07-12T01:38:30;15.60;99.90
23873;DHT22;42884;50.718;4.630;2022-07-12T01:40:56;15.60;99.90
23873;DHT22;42884;50.718;4.630;2022-07-12T01:43:21;15.50;99.90
23873;DHT22;42884;50.718;4.630;2022-07-12T01:45:47;15.50;99.90
23873;DHT22;42884;50.718;4.630;2022-07-12T01:48:12;15.50;99.90
23873;DHT22;42884;50.718;4.630;2022-07-12T01:50:38;15.50;99.90
23873;DHT22;42884;50.718;4.630;2022-07-12T01:53:05;15.40;99.90
23873;DHT22;42884;50.718;4.630;2022-07-12T01:55:31;15.40;99.90
23873;DHT22;42884;50.718;4.630;2022-07-12T01:57:57;15.40;99.90
23873;DHT22;42884;50.718;4.630;2022-07-12T02:00:23;15.30;99.90
23873;DHT22;42884;50.718;4.630;2022-07-12T02:02:48;15.30;99.90
23873;DHT22;42884;50.718;4.630;2022-07-12T02:05:14;15.30;99.90
23873;DHT22;42884;50.718;4.630;2022-07-12T02:07:40;15.20;99.90
23873;DHT22;42884;50.718;4.630;2022-07-12T02:10:06;15.20;99.90
23873;DHT22;42884;50.718;4.630;2022-07-12T02:12:31;15.20;99.90
23873;DHT22;42884;50.718;4.630;2022-07-12T02:14:57;15.20;99.90
23873;DHT22;42884;50.718;4.630;2022-07-12T02:17:22;15.10;99.90
23873;DHT22;42884;50.718;4.630;2022-07-12T02:19:48;15.10;99.90
23873;DHT22;42884;50.718;4.630;2022-07-12T02:22:14;15.10;99.90
23873;DHT22;42884;50.718;4.630;2022-07-12T02:24:39;15.10;99.90
23873;DHT22;42884;50.718;4.630;2022-07-12T02:27:05;15.00;99.90
23873;DHT22;42884;50.718;4.630;2022-07-12T02:29:31;15.00;99.90
23873;DHT22;42884;50.718;4.630;2022-07-12T02:31:57;15.00;99.90
23873;DHT22;42884;50.718;4.630;2022-07-12T02:34:22;15.00;99.90
23873;DHT22;42884;50.718;4.630;2022-07-12T02:36:48;14.90;99.90
23873;DHT22;42884;50.718;4.630;2022-07-12T02:39:13;14.90;99.90
23873;DHT22;42884;50.718;4.630;2022-07-12T02:41:39;14.80;99.90
23873;DHT22;42884;50.718;4.630;2022-07-12T02:44:04;14.80;99.90
23873;DHT22;42884;50.718;4.630;2022-07-12T02:46:30;14.80;99.90
23873;DHT22;42884;50.718;4.630;2022-07-12T02:48:56;14.80;99.90
23873;DHT22;42884;50.718;4.630;2022-07-12T02:51:21;14.70;99.90
23873;DHT22;42884;50.718;4.630;2022-07-12T02:53:47;14.70;99.90
23873;DHT22;42884;50.718;4.630;2022-07-12T02:56:13;14.70;99.90
23873;DHT22;42884;50.718;4.630;2022-07-12T02:58:38;14.70;99.90
23873;DHT22;42884;50.718;4.630;2022-07-12T03:01:04;14.70;99.90
23873;DHT22;42884;50.718;4.630;2022-07-12T03:03:29;14.60;99.90
23873;DHT22;42884;50.718;4.630;2022-07-12T03:05:55;14.60;99.90
23873;DHT22;42884;50.718;4.630;2022-07-12T03:08:21;14.60;99.90
23873;DHT22;42884;50.718;4.630;2022-07-12T03:10:46;14.60;99.90
23873;DHT22;42884;50.718;4.630;2022-07-12T03:13:12;14.50;99.90
23873;DHT22;42884;50.718;4.630;2022-07-12T03:15:38;14.50;99.90
23873;DHT22;42884;50.718;4.630;2022-07-12T03:18:03;14.50;99.90
23873;DHT22;42884;50.718;4.630;2022-07-12T03:20:30;14.40;99.90
23873;DHT22;42884;50.718;4.630;2022-07-12T03:22:55;14.40;99.90
23873;DHT22;42884;50.718;4.630;2022-07-12T03:25:21;14.40;99.90
23873;DHT22;42884;50.718;4.630;2022-07-12T03:27:47;14.40;99.90
23873;DHT22;42884;50.718;4.630;2022-07-12T03:30:13;14.40;99.90
23873;DHT22;42884;50.718;4.630;2022-07-12T03:32:39;14.30;99.90
23873;DHT22;42884;50.718;4.630;2022-07-12T03:35:05;14.30;99.90
23873;DHT22;42884;50.718;4.630;2022-07-12T03:37:48;14.30;99.90
23873;DHT22;42884;50.718;4.630;2022-07-12T03:40:15;14.30;99.90
23873;DHT22;42884;50.718;4.630;2022-07-12T03:42:41;14.20;99.90
23873;DHT22;42884;50.718;4.630;2022-07-12T03:45:07;14.20;99.90
23873;DHT22;42884;50.718;4.630;2022-07-12T03:47:33;14.20;99.90
23873;DHT22;42884;50.718;4.630;2022-07-12T03:50:01;14.20;99.90
23873;DHT22;42884;50.718;4.630;2022-07-12T03:52:27;14.20;99.90
23873;DHT22;42884;50.718;4.630;2022-07-12T03:54:53;14.20;99.90
23873;DHT22;42884;50.718;4.630;2022-07-12T03:57:18;14.10;99.90
23873;DHT22;42884;50.718;4.630;2022-07-12T03:59:44;14.20;99.90
23873;DHT22;42884;50.718;4.630;2022-07-12T04:02:10;14.10;99.90
23873;DHT22;42884;50.718;4.630;2022-07-12T04:04:36;14.10;99.90
23873;DHT22;42884;50.718;4.630;2022-07-12T04:07:02;14.10;99.90
23873;DHT22;42884;50.718;4.630;2022-07-12T04:09:28;14.10;99.90
23873;DHT22;42884;50.718;4.630;2022-07-12T04:11:53;14.10;99.90
23873;DHT22;42884;50.718;4.630;2022-07-12T04:14:19;14.10;99.90
23873;DHT22;42884;50.718;4.630;2022-07-12T04:16:44;14.10;99.90
23873;DHT22;42884;50.718;4.630;2022-07-12T04:19:10;14.10;99.90
23873;DHT22;42884;50.718;4.630;2022-07-12T04:21:36;14.10;99.90
23873;DHT22;42884;50.718;4.630;2022-07-12T04:24:01;14.10;99.90
23873;DHT22;42884;50.718;4.630;2022-07-12T04:26:27;14.20;99.90
23873;DHT22;42884;50.718;4.630;2022-07-12T04:28:52;14.20;99.90
23873;DHT22;42884;50.718;4.630;2022-07-12T04:31:18;14.20;99.90
23873;DHT22;42884;50.718;4.630;2022-07-12T04:33:44;14.20;99.90
23873;DHT22;42884;50.718;4.630;2022-07-12T04:36:10;14.20;99.90
23873;DHT22;42884;50.718;4.630;2022-07-12T04:38:35;14.30;99.90
23873;DHT22;42884;50.718;4.630;2022-07-12T04:41:01;14.30;99.90
23873;DHT22;42884;50.718;4.630;2022-07-12T04:43:26;14.30;99.90
23873;DHT22;42884;50.718;4.630;2022-07-12T04:45:52;14.30;99.90
23873;DHT22;42884;50.718;4.630;2022-07-12T04:48:17;14.40;99.90
23873;DHT22;42884;50.718;4.630;2022-07-12T04:50:43;14.40;99.90
23873;DHT22;42884;50.718;4.630;2022-07-12T04:53:09;14.50;99.90
23873;DHT22;42884;50.718;4.630;2022-07-12T04:55:34;14.50;99.90
23873;DHT22;42884;50.718;4.630;2022-07-12T04:58:00;14.60;99.90
23873;DHT22;42884;50.718;4.630;2022-07-12T05:00:25;14.70;99.90
23873;DHT22;42884;50.718;4.630;2022-07-12T05:02:51;14.70;99.90
23873;DHT22;42884;50.718;4.630;2022-07-12T05:05:16;14.80;99.90
23873;DHT22;42884;50.718;4.630;2022-07-12T05:07:42;15.00;99.90
23873;DHT22;42884;50.718;4.630;2022-07-12T05:10:08;15.10;99.90
23873;DHT22;42884;50.718;4.630;2022-07-12T05:12:34;15.20;99.90
23873;DHT22;42884;50.718;4.630;2022-07-12T05:14:59;15.40;99.90
23873;DHT22;42884;50.718;4.630;2022-07-12T05:17:25;15.50;99.90
23873;DHT22;42884;50.718;4.630;2022-07-12T05:19:51;15.70;99.90
23873;DHT22;42884;50.718;4.630;2022-07-12T05:22:16;15.80;99.90
23873;DHT22;42884;50.718;4.630;2022-07-12T05:24:42;15.90;99.90
23873;DHT22;42884;50.718;4.630;2022-07-12T05:27:07;16.10;99.90
23873;DHT22;42884;50.718;4.630;2022-07-12T05:29:33;16.20;99.90
23873;DHT22;42884;50.718;4.630;2022-07-12T05:31:58;16.30;99.90
23873;DHT22;42884;50.718;4.630;2022-07-12T05:34:26;16.40;99.90
23873;DHT22;42884;50.718;4.630;2022-07-12T05:36:52;16.60;99.90
23873;DHT22;42884;50.718;4.630;2022-07-12T05:39:17;16.60;99.90
23873;DHT22;42884;50.718;4.630;2022-07-12T05:41:43;16.80;99.90
23873;DHT22;42884;50.718;4.630;2022-07-12T05:44:09;16.90;99.90
23873;DHT22;42884;50.718;4.630;2022-07-12T05:46:34;17.00;99.90
23873;DHT22;42884;50.718;4.630;2022-07-12T05:49:02;17.10;99.90
23873;DHT22;42884;50.718;4.630;2022-07-12T05:51:27;17.10;99.90
23873;DHT22;42884;50.718;4.630;2022-07-12T05:54:11;17.20;99.90
23873;DHT22;42884;50.718;4.630;2022-07-12T05:56:37;17.40;99.90
23873;DHT22;42884;50.718;4.630;2022-07-12T05:59:02;17.40;99.90
23873;DHT22;42884;50.718;4.630;2022-07-12T06:01:28;17.60;99.90
23873;DHT22;42884;50.718;4.630;2022-07-12T06:03:54;17.70;99.90
23873;DHT22;42884;50.718;4.630;2022-07-12T06:06:19;17.80;99.90
23873;DHT22;42884;50.718;4.630;2022-07-12T06:08:45;17.90;99.90
23873;DHT22;42884;50.718;4.630;2022-07-12T06:11:10;18.00;99.90
23873;DHT22;42884;50.718;4.630;2022-07-12T06:13:36;18.10;99.90
23873;DHT22;42884;50.718;4.630;2022-07-12T06:16:02;18.20;99.90
23873;DHT22;42884;50.718;4.630;2022-07-12T06:18:31;18.30;99.90
23873;DHT22;42884;50.718;4.630;2022-07-12T06:20:57;18.40;99.90
23873;DHT22;42884;50.718;4.630;2022-07-12T06:23:22;18.50;99.90
23873;DHT22;42884;50.718;4.630;2022-07-12T06:25:48;18.60;99.90
23873;DHT22;42884;50.718;4.630;2022-07-12T06:28:13;18.60;99.90
23873;DHT22;42884;50.718;4.630;2022-07-12T06:30:39;18.80;99.90
23873;DHT22;42884;50.718;4.630;2022-07-12T06:33:04;18.90;99.90
23873;DHT22;42884;50.718;4.630;2022-07-12T06:35:30;19.00;99.90
23873;DHT22;42884;50.718;4.630;2022-07-12T06:37:56;19.20;99.90
23873;DHT22;42884;50.718;4.630;2022-07-12T06:40:21;19.30;99.90
23873;DHT22;42884;50.718;4.630;2022-07-12T06:42:48;19.50;99.90
23873;DHT22;42884;50.718;4.630;2022-07-12T06:45:14;19.60;99.90
23873;DHT22;42884;50.718;4.630;2022-07-12T06:47:39;19.80;99.90
23873;DHT22;42884;50.718;4.630;2022-07-12T06:50:05;20.00;99.90
23873;DHT22;42884;50.718;4.630;2022-07-12T06:52:30;20.10;99.90
23873;DHT22;42884;50.718;4.630;2022-07-12T06:54:56;20.30;99.90
23873;DHT22;42884;50.718;4.630;2022-07-12T06:57:22;20.40;99.90
23873;DHT22;42884;50.718;4.630;2022-07-12T06:59:48;20.50;99.90
23873;DHT22;42884;50.718;4.630;2022-07-12T07:02:14;20.70;99.90
23873;DHT22;42884;50.718;4.630;2022-07-12T07:04:39;20.80;99.90
23873;DHT22;42884;50.718;4.630;2022-07-12T07:07:05;20.90;99.90
23873;DHT22;42884;50.718;4.630;2022-07-12T07:09:30;21.10;99.90
23873;DHT22;42884;50.718;4.630;2022-07-12T07:11:56;21.20;99.90
23873;DHT22;42884;50.718;4.630;2022-07-12T07:14:21;21.30;99.90
23873;DHT22;42884;50.718;4.630;2022-07-12T07:16:47;21.40;99.90
23873;DHT22;42884;50.718;4.630;2022-07-12T07:19:12;21.50;99.90
23873;DHT22;42884;50.718;4.630;2022-07-12T07:21:38;21.50;99.90
23873;DHT22;42884;50.718;4.630;2022-07-12T07:24:03;21.60;99.90
23873;DHT22;42884;50.718;4.630;2022-07-12T07:26:30;21.60;99.90
23873;DHT22;42884;50.718;4.630;2022-07-12T07:28:55;21.80;99.90
23873;DHT22;42884;50.718;4.630;2022-07-12T07:31:39;22.10;99.90
23873;DHT22;42884;50.718;4.630;2022-07-12T07:34:05;22.30;99.90
23873;DHT22;42884;50.718;4.630;2022-07-12T07:36:31;22.30;99.90
23873;DHT22;42884;50.718;4.630;2022-07-12T07:38:57;22.40;99.90
23873;DHT22;42884;50.718;4.630;2022-07-12T07:41:23;22.60;99.90
23873;DHT22;42884;50.718;4.630;2022-07-12T07:43:49;22.60;99.90
23873;DHT22;42884;50.718;4.630;2022-07-12T07:46:14;22.80;99.90
23873;DHT22;42884;50.718;4.630;2022-07-12T07:48:40;23.00;99.90
23873;DHT22;42884;50.718;4.630;2022-07-12T07:51:05;23.10;99.90
23873;DHT22;42884;50.718;4.630;2022-07-12T07:53:31;23.30;99.90
23873;DHT22;42884;50.718;4.630;2022-07-12T07:55:56;23.50;99.90
23873;DHT22;42884;50.718;4.630;2022-07-12T07:58:23;23.80;99.90
23873;DHT22;42884;50.718;4.630;2022-07-12T08:00:52;23.90;99.90
23873;DHT22;42884;50.718;4.630;2022-07-12T08:03:20;24.00;99.90
23873;DHT22;42884;50.718;4.630;2022-07-12T08:05:46;24.20;99.90
23873;DHT22;42884;50.718;4.630;2022-07-12T08:08:13;24.40;99.90
23873;DHT22;42884;50.718;4.630;2022-07-12T08:10:38;24.60;99.90
23873;DHT22;42884;50.718;4.630;2022-07-12T08:13:04;24.90;99.90
23873;DHT22;42884;50.718;4.630;2022-07-12T08:15:30;25.30;99.90
23873;DHT22;42884;50.718;4.630;2022-07-12T08:17:56;25.70;99.90
23873;DHT22;42884;50.718;4.630;2022-07-12T08:20:22;25.80;99.90
23873;DHT22;42884;50.718;4.630;2022-07-12T08:22:47;26.00;99.90
23873;DHT22;42884;50.718;4.630;2022-07-12T08:25:13;26.20;99.90
23873;DHT22;42884;50.718;4.630;2022-07-12T08:27:39;26.50;99.90
23873;DHT22;42884;50.718;4.630;2022-07-12T08:30:05;26.40;99.90
23873;DHT22;42884;50.718;4.630;2022-07-12T08:32:30;26.70;99.90
23873;DHT22;42884;50.718;4.630;2022-07-12T08:34:56;26.70;99.90
23873;DHT22;42884;50.718;4.630;2022-07-12T08:37:22;26.80;99.90
23873;DHT22;42884;50.718;4.630;2022-07-12T08:39:47;27.20;99.90
23873;DHT22;42884;50.718;4.630;2022-07-12T08:42:16;27.00;99.90
23873;DHT22;42884;50.718;4.630;2022-07-12T08:44:53;27.10;99.90
23873;DHT22;42884;50.718;4.630;2022-07-12T08:47:18;27.20;99.90
23873;DHT22;42884;50.718;4.630;2022-07-12T08:50:08;27.40;99.90
23873;DHT22;42884;50.718;4.630;2022-07-12T08:52:29;27.50;99.90
23873;DHT22;42884;50.718;4.630;2022-07-12T08:54:55;27.80;99.90
23873;DHT22;42884;50.718;4.630;2022-07-12T08:57:30;27.90;99.90
23873;DHT22;42884;50.718;4.630;2022-07-12T08:59:59;27.70;99.90
23873;DHT22;42884;50.718;4.630;2022-07-12T09:02:25;28.30;99.90
23873;DHT22;42884;50.718;4.630;2022-07-12T09:05:07;28.70;99.90
23873;DHT22;42884;50.718;4.630;2022-07-12T09:07:36;28.80;99.90
23873;DHT22;42884;50.718;4.630;2022-07-12T09:10:03;29.20;99.90
23873;DHT22;42884;50.718;4.630;2022-07-12T09:12:29;29.40;99.90
23873;DHT22;42884;50.718;4.630;2022-07-12T09:14:54;29.50;99.90
23873;DHT22;42884;50.718;4.630;2022-07-12T09:17:21;29.80;99.90
23873;DHT22;42884;50.718;4.630;2022-07-12T09:19:56;30.20;99.90
23873;DHT22;42884;50.718;4.630;2022-07-12T09:22:22;30.10;99.90
23873;DHT22;42884;50.718;4.630;2022-07-12T09:24:47;30.60;99.90
23873;DHT22;42884;50.718;4.630;2022-07-12T09:27:13;30.80;98.80
23873;DHT22;42884;50.718;4.630;2022-07-12T09:29:49;30.90;99.90
23873;DHT22;42884;50.718;4.630;2022-07-12T09:32:14;30.70;99.40
23873;DHT22;42884;50.718;4.630;2022-07-12T09:34:58;30.40;98.30
23873;DHT22;42884;50.718;4.630;2022-07-12T09:37:43;30.20;99.10
23873;DHT22;42884;50.718;4.630;2022-07-12T09:40:09;30.40;99.90
23873;DHT22;42884;50.718;4.630;2022-07-12T09:42:35;30.70;99.90
23873;DHT22;42884;50.718;4.630;2022-07-12T09:45:01;30.90;99.30
23873;DHT22;42884;50.718;4.630;2022-07-12T09:47:27;31.70;98.90
23873;DHT22;42884;50.718;4.630;2022-07-12T09:49:55;32.00;98.20
23873;DHT22;42884;50.718;4.630;2022-07-12T09:52:22;31.80;96.00
23873;DHT22;42884;50.718;4.630;2022-07-12T09:54:51;31.80;93.70
23873;DHT22;42884;50.718;4.630;2022-07-12T09:59:46;31.50;95.30
23873;DHT22;42884;50.718;4.630;2022-07-12T10:02:13;31.50;96.30
23873;DHT22;42884;50.718;4.630;2022-07-12T10:04:41;31.50;95.10
23873;DHT22;42884;50.718;4.630;2022-07-12T10:07:07;31.70;96.60
23873;DHT22;42884;50.718;4.630;2022-07-12T10:09:34;32.00;96.90
23873;DHT22;42884;50.718;4.630;2022-07-12T10:12:00;32.50;95.20
23873;DHT22;42884;50.718;4.630;2022-07-12T10:14:26;32.70;94.20
23873;DHT22;42884;50.718;4.630;2022-07-12T10:16:52;32.40;94.70
23873;DHT22;42884;50.718;4.630;2022-07-12T10:19:25;32.70;94.80
23873;DHT22;42884;50.718;4.630;2022-07-12T10:21:52;32.80;94.00
23873;DHT22;42884;50.718;4.630;2022-07-12T10:29:43;33.60;95.00
23873;DHT22;42884;50.718;4.630;2022-07-12T10:34:43;34.30;93.20
23873;DHT22;42884;50.718;4.630;2022-07-12T10:37:21;34.00;90.10
23873;DHT22;42884;50.718;4.630;2022-07-12T10:42:31;34.20;92.60
23873;DHT22;42884;50.718;4.630;2022-07-12T10:44:56;33.70;92.00
23873;DHT22;42884;50.718;4.630;2022-07-12T10:47:52;34.20;91.50
23873;DHT22;42884;50.718;4.630;2022-07-12T10:50:18;34.30;91.30
23873;DHT22;42884;50.718;4.630;2022-07-12T10:52:43;34.60;89.50
23873;DHT22;42884;50.718;4.630;2022-07-12T10:57:41;34.20;88.60
23873;DHT22;42884;50.718;4.630;2022-07-12T11:00:09;34.10;87.40
23873;DHT22;42884;50.718;4.630;2022-07-12T11:02:34;33.90;90.20
23873;DHT22;42884;50.718;4.630;2022-07-12T11:05:00;34.20;90.50
23873;DHT22;42884;50.718;4.630;2022-07-12T11:07:26;34.20;86.90
23873;DHT22;42884;50.718;4.630;2022-07-12T11:09:52;33.60;87.10
23873;DHT22;42884;50.718;4.630;2022-07-12T11:12:18;33.50;90.20
23873;DHT22;42884;50.718;4.630;2022-07-12T11:14:45;33.80;91.30
23873;DHT22;42884;50.718;4.630;2022-07-12T11:17:10;33.80;90.80
23873;DHT22;42884;50.718;4.630;2022-07-12T11:19:36;33.90;91.60
23873;DHT22;42884;50.718;4.630;2022-07-12T11:22:01;34.10;91.80
23873;DHT22;42884;50.718;4.630;2022-07-12T11:24:28;34.60;87.40
23873;DHT22;42884;50.718;4.630;2022-07-12T11:26:54;34.50;82.00
23873;DHT22;42884;50.718;4.630;2022-07-12T11:29:20;33.90;82.10
23873;DHT22;42884;50.718;4.630;2022-07-12T11:31:45;33.80;89.30
23873;DHT22;42884;50.718;4.630;2022-07-12T11:34:24;33.90;89.30
23873;DHT22;42884;50.718;4.630;2022-07-12T11:36:54;34.20;85.80
23873;DHT22;42884;50.718;4.630;2022-07-12T11:41:58;34.30;84.00
23873;DHT22;42884;50.718;4.630;2022-07-12T11:47:08;34.30;85.40
23873;DHT22;42884;50.718;4.630;2022-07-12T11:49:34;34.30;80.50
23873;DHT22;42884;50.718;4.630;2022-07-12T11:52:00;34.60;83.50
23873;DHT22;42884;50.718;4.630;2022-07-12T11:54:25;34.90;82.90
23873;DHT22;42884;50.718;4.630;2022-07-12T11:57:04;35.30;84.60
23873;DHT22;42884;50.718;4.630;2022-07-12T11:59:29;35.30;80.50
23873;DHT22;42884;50.718;4.630;2022-07-12T12:02:04;34.90;76.60
23873;DHT22;42884;50.718;4.630;2022-07-12T12:04:31;34.90;82.40
23873;DHT22;42884;50.718;4.630;2022-07-12T12:06:56;35.20;82.40
23873;DHT22;42884;50.718;4.630;2022-07-12T12:09:22;35.30;80.90
23873;DHT22;42884;50.718;4.630;2022-07-12T12:11:47;35.50;77.30
23873;DHT22;42884;50.718;4.630;2022-07-12T12:14:13;35.60;75.80
23873;DHT22;42884;50.718;4.630;2022-07-12T12:16:38;36.00;79.60
23873;DHT22;42884;50.718;4.630;2022-07-12T12:19:07;36.10;76.10
23873;DHT22;42884;50.718;4.630;2022-07-12T12:21:35;36.20;78.50
23873;DHT22;42884;50.718;4.630;2022-07-12T12:24:10;36.20;81.20
23873;DHT22;42884;50.718;4.630;2022-07-12T12:26:36;35.60;72.20
23873;DHT22;42884;50.718;4.630;2022-07-12T12:29:01;35.50;77.10
23873;DHT22;42884;50.718;4.630;2022-07-12T12:31:27;35.90;80.60
23873;DHT22;42884;50.718;4.630;2022-07-12T12:33:54;36.30;78.80
23873;DHT22;42884;50.718;4.630;2022-07-12T12:36:23;36.40;72.50
23873;DHT22;42884;50.718;4.630;2022-07-12T12:38:49;36.60;79.00
23873;DHT22;42884;50.718;4.630;2022-07-12T12:41:15;36.70;74.10
23873;DHT22;42884;50.718;4.630;2022-07-12T12:43:41;36.90;72.40
23873;DHT22;42884;50.718;4.630;2022-07-12T12:46:09;36.70;78.20
23873;DHT22;42884;50.718;4.630;2022-07-12T12:48:35;36.90;75.80
23873;DHT22;42884;50.718;4.630;2022-07-12T12:53:29;36.60;77.20
23873;DHT22;42884;50.718;4.630;2022-07-12T12:55:55;36.60;73.30
23873;DHT22;42884;50.718;4.630;2022-07-12T12:58:21;36.90;73.70
23873;DHT22;42884;50.718;4.630;2022-07-12T13:00:48;37.00;71.80
23873;DHT22;42884;50.718;4.630;2022-07-12T13:03:14;37.00;69.10
23873;DHT22;42884;50.718;4.630;2022-07-12T13:05:40;36.80;70.80
23873;DHT22;42884;50.718;4.630;2022-07-12T13:08:07;36.70;70.10
23873;DHT22;42884;50.718;4.630;2022-07-12T13:10:33;36.90;77.50
23873;DHT22;42884;50.718;4.630;2022-07-12T13:12:59;36.70;78.10
23873;DHT22;42884;50.718;4.630;2022-07-12T13:15:25;36.90;71.30
23873;DHT22;42884;50.718;4.630;2022-07-12T13:17:51;36.80;70.50
23873;DHT22;42884;50.718;4.630;2022-07-12T13:20:17;37.30;70.50
23873;DHT22;42884;50.718;4.630;2022-07-12T13:22:43;36.90;67.70
23873;DHT22;42884;50.718;4.630;2022-07-12T13:25:09;36.60;66.20
23873;DHT22;42884;50.718;4.630;2022-07-12T13:27:36;36.80;67.40
23873;DHT22;42884;50.718;4.630;2022-07-12T13:30:01;37.10;67.90
23873;DHT22;42884;50.718;4.630;2022-07-12T13:32:27;37.30;65.50
23873;DHT22;42884;50.718;4.630;2022-07-12T13:34:53;37.30;75.00
23873;DHT22;42884;50.718;4.630;2022-07-12T13:37:19;37.20;69.10
23873;DHT22;42884;50.718;4.630;2022-07-12T13:39:44;37.00;65.90
23873;DHT22;42884;50.718;4.630;2022-07-12T13:42:28;37.00;68.60
23873;DHT22;42884;50.718;4.630;2022-07-12T13:44:54;36.60;65.80
23873;DHT22;42884;50.718;4.630;2022-07-12T13:47:20;36.30;70.00
23873;DHT22;42884;50.718;4.630;2022-07-12T13:49:46;36.60;68.30
23873;DHT22;42884;50.718;4.630;2022-07-12T13:52:12;36.40;61.70
23873;DHT22;42884;50.718;4.630;2022-07-12T13:54:37;36.60;70.00
23873;DHT22;42884;50.718;4.630;2022-07-12T13:57:03;36.40;70.00
23873;DHT22;42884;50.718;4.630;2022-07-12T13:59:29;36.30;72.30
23873;DHT22;42884;50.718;4.630;2022-07-12T14:01:54;36.50;71.50
23873;DHT22;42884;50.718;4.630;2022-07-12T14:04:20;36.50;68.00
23873;DHT22;42884;50.718;4.630;2022-07-12T14:06:45;36.20;69.70
23873;DHT22;42884;50.718;4.630;2022-07-12T14:09:12;36.20;63.50
23873;DHT22;42884;50.718;4.630;2022-07-12T14:11:38;36.20;62.60
23873;DHT22;42884;50.718;4.630;2022-07-12T14:14:03;36.30;71.00
23873;DHT22;42884;50.718;4.630;2022-07-12T14:16:29;36.10;60.30
23873;DHT22;42884;50.718;4.630;2022-07-12T14:18:55;36.00;64.40
23873;DHT22;42884;50.718;4.630;2022-07-12T14:21:21;36.30;67.40
23873;DHT22;42884;50.718;4.630;2022-07-12T14:23:46;35.90;67.00
23873;DHT22;42884;50.718;4.630;2022-07-12T14:26:12;36.00;69.50
23873;DHT22;42884;50.718;4.630;2022-07-12T14:28:37;36.40;71.80
23873;DHT22;42884;50.718;4.630;2022-07-12T14:31:03;36.80;67.80
23873;DHT22;42884;50.718;4.630;2022-07-12T14:33:30;37.10;69.00
23873;DHT22;42884;50.718;4.630;2022-07-12T14:35:55;37.30;70.00
23873;DHT22;42884;50.718;4.630;2022-07-12T14:38:21;37.50;61.70
23873;DHT22;42884;50.718;4.630;2022-07-12T14:40:46;37.20;64.50
23873;DHT22;42884;50.718;4.630;2022-07-12T14:43:12;37.00;73.60
23873;DHT22;42884;50.718;4.630;2022-07-12T14:45:37;37.00;68.20
23873;DHT22;42884;50.718;4.630;2022-07-12T14:48:03;37.30;65.50
23873;DHT22;42884;50.718;4.630;2022-07-12T14:50:28;37.10;69.10
23873;DHT22;42884;50.718;4.630;2022-07-12T14:52:54;37.30;65.80
23873;DHT22;42884;50.718;4.630;2022-07-12T14:55:20;37.10;65.10
23873;DHT22;42884;50.718;4.630;2022-07-12T14:57:45;37.20;66.10
23873;DHT22;42884;50.718;4.630;2022-07-12T15:00:11;37.50;68.60
23873;DHT22;42884;50.718;4.630;2022-07-12T15:02:37;37.70;62.90
23873;DHT22;42884;50.718;4.630;2022-07-12T15:05:02;37.90;65.60
23873;DHT22;42884;50.718;4.630;2022-07-12T15:07:31;37.80;63.80
23873;DHT22;42884;50.718;4.630;2022-07-12T15:09:57;37.70;61.20
23873;DHT22;42884;50.718;4.630;2022-07-12T15:12:26;37.70;66.20
23873;DHT22;42884;50.718;4.630;2022-07-12T15:14:51;37.90;68.20
23873;DHT22;42884;50.718;4.630;2022-07-12T15:17:17;37.70;59.80
23873;DHT22;42884;50.718;4.630;2022-07-12T15:19:44;37.60;64.80
23873;DHT22;42884;50.718;4.630;2022-07-12T15:22:10;38.00;62.90
23873;DHT22;42884;50.718;4.630;2022-07-12T15:24:37;38.00;66.20
23873;DHT22;42884;50.718;4.630;2022-07-12T15:27:03;38.10;64.80
23873;DHT22;42884;50.718;4.630;2022-07-12T15:29:36;37.70;64.10
23873;DHT22;42884;50.718;4.630;2022-07-12T15:32:03;37.60;61.90
23873;DHT22;42884;50.718;4.630;2022-07-12T15:34:29;37.10;59.90
23873;DHT22;42884;50.718;4.630;2022-07-12T15:36:55;36.60;58.20
23873;DHT22;42884;50.718;4.630;2022-07-12T15:39:20;36.50;63.20
23873;DHT22;42884;50.718;4.630;2022-07-12T15:41:47;36.90;64.10
23873;DHT22;42884;50.718;4.630;2022-07-12T15:44:13;37.20;63.50
23873;DHT22;42884;50.718;4.630;2022-07-12T15:46:38;37.40;62.20
23873;DHT22;42884;50.718;4.630;2022-07-12T15:49:04;37.60;63.00